Aérodrome :
LOGIN :

S'inscrire | Disclaimer

   EN    FR    IT 

 










Légende :    VFR   VFR Marginal   IFR   IFR Intensif   IFR Très Intensif
Visi : 
Plafond : 
>= 8 km
>= 3000ft
5 à 8 km
1000 à 3000 ft
1500m à 5 km
500 à 1000 ft
800 à 1500m
200 à 500 ft
< 800m
< 200 ft
Symboles :   Orages  Brouillard  Fortes neiges  Fortes précipitations  Vent > 20 kt
SIGMETs :   Divers  Orages  Givrage  Turbulence  Onde Orograph.  Cendres Volcan.







- Altitude de l'aérodrome : 919 ft
- Code IATA : IFO


UKLI - Ivano Frankivs'k

METAR N/A
TAF TAF UKLI
Valide du 20 à 18h jusqu'au 21 à 03h UTC


201703Z 2018/2103 36004G09MPS 2100 -SHRA BKN011CB
TEMPO 2018/2024 VRB10G15MPS 1200 TSRAGR BKN006 BKN010CB
Pas de NOTAMs connus pour ce terrain.
1 SIGMET publié pour la FIR L'VIV (UKLV) :
 
Orages noyés dans la masse avec grêle
UKLV SIGMET 1 VALID 210000/210400 UKLW
UKLV LVIV FIR/UIR EMBD TSGR FCST ENTIRE FIR/UIR TOP FL360 MOV NW 40KMH NC=



MET'MAP, la Météo Aéronautique d'un coup d'oeil ! - Copyright ORBIFLY Décembre 2007 - Disclaimer

ORBIFLY MET'MAP TEAM :

Programmation & Développement : Alexandra Zaïnal
Conception & Développement : Baudouin d'Aumeries
Co-Programmation & Développement : Marc-Olivier Méhu
Soutien technique & logistique : Manuel Goepfert

Contact : metmap@orbifly.com




SOURCES & CREDITS :

   NOAA